Aérodrome :
LOGIN :

S'inscrire | Disclaimer

   EN    FR    IT 

 










Légende :    VFR   VFR Marginal   IFR   IFR Intensif   IFR Très Intensif
Visi : 
Plafond : 
>= 8 km
>= 3000ft
5 à 8 km
1000 à 3000 ft
1500m à 5 km
500 à 1000 ft
800 à 1500m
200 à 500 ft
< 800m
< 200 ft
Symboles :   Orages  Brouillard  Fortes neiges  Fortes précipitations  Vent > 20 kt
SIGMETs :   Divers  Orages  Givrage  Turbulence  Onde Orograph.  Cendres Volcan.







- Altitude de l'aérodrome : 265 ft
- Code IATA : BJY


LYBT - Batajnica Air Base

DERNIER METAR :
  • 181930Z 28004KT 9999 SCT013 BKN040 02/02 Q1024 NOSIG

METARs EXPIRÉS :
  • 181900Z 28005KT 9999 SCT013 BKN040 02/02 Q1024 NOSIG
  • 181830Z 29005KT 8000 -RA SCT013 BKN033 02/02 Q1024 NOSIG
  • 181800Z 29005KT 8000 -RA SCT009 BKN033 02/02 Q1024 NOSIG
  • 181730Z 29006KT 8000 -RA BKN009 BKN033 02/02 Q1024 NOSIG
  • 181700Z 30006KT 8000 -RA BKN009 BKN033 02/02 Q1024 NOSIG
  • 181630Z 30006KT 8000 -RA BKN009 BKN033 02/02 Q1024 NOSIG

TAF TAF LYBT
Valide du 18 à 18h jusqu'au 19 à 18h UTC


181700Z 1818/1918 34010KT 7000 -RASN BKN007 BKN030 TX01/1912Z TNM01/1902Z
BECMG 1822/1824 NSW SCT015 BKN033
BECMG 1909/1911 06006KT
TEMPO 1912/1918 4000 RA BKN012 BKN030
Pas de NOTAMs connus pour ce terrain.



MET'MAP, la Météo Aéronautique d'un coup d'oeil ! - Copyright ORBIFLY Décembre 2007 - Disclaimer

ORBIFLY MET'MAP TEAM :

Programmation & Développement : Alexandra Zaïnal
Conception & Développement : Baudouin d'Aumeries
Co-Programmation & Développement : Marc-Olivier Méhu
Soutien technique & logistique : Manuel Goepfert

Contact : metmap@orbifly.com




SOURCES & CREDITS :

   NOAA